Time;durP1;ratioP1;P1;durP2;ratioP2;P2;SDS_P1;SDS_P2;PMS_P1;PMS_P2;Temp;Humidity;BMP_temperature;BMP_pressure;BME280_temperature;BME280_humidity;BME280_pressure;Samples;Min_cycle;Max_cycle;Signal;HPM_P1;HPM_P2
2021/07/22 00:00:24;;;;;;;3.65;3.15;;;22.70;73.40;;;;;;5036354;28;20029;-66
2021/07/22 00:02:50;;;;;;;4.35;3.33;;;22.70;73.60;;;;;;5036528;28;20370;-66
2021/07/22 00:05:16;;;;;;;3.80;3.40;;;22.70;73.50;;;;;;5031421;28;20034;-66
2021/07/22 00:07:46;;;;;;;4.20;3.50;;;22.70;73.40;;;;;;5035477;28;20072;-66
2021/07/22 00:10:12;;;;;;;3.97;3.20;;;22.60;73.50;;;;;;5025710;28;20016;-66
2021/07/22 00:12:38;;;;;;;5.00;3.10;;;22.60;73.60;;;;;;5034664;28;20430;-66
2021/07/22 00:15:05;;;;;;;5.93;3.35;;;22.60;73.70;;;;;;5036218;28;20125;-66
2021/07/22 00:17:32;;;;;;;4.15;3.30;;;22.60;73.40;;;;;;5036126;28;20025;-66
2021/07/22 00:20:00;;;;;;;6.18;3.47;;;22.50;73.20;;;;;;5033342;28;20486;-66
2021/07/22 00:22:28;;;;;;;5.65;3.40;;;22.50;73.60;;;;;;5017987;28;20026;-66
2021/07/22 00:24:54;;;;;;;4.30;3.45;;;22.50;73.40;;;;;;5019921;28;20022;-66
2021/07/22 00:27:20;;;;;;;5.60;3.67;;;22.50;73.50;;;;;;5034708;28;20345;-66
2021/07/22 00:29:46;;;;;;;4.85;3.42;;;22.50;73.70;;;;;;5034640;28;20025;-66
2021/07/22 00:32:12;;;;;;;3.58;3.15;;;22.40;74.50;;;;;;5033781;28;20078;-66
2021/07/22 00:34:38;;;;;;;4.90;3.35;;;22.40;73.60;;;;;;5033619;28;20025;-66
2021/07/22 00:37:04;;;;;;;3.40;3.00;;;22.40;73.50;;;;;;5034206;28;20017;-66
2021/07/22 00:39:30;;;;;;;5.95;3.03;;;22.40;73.40;;;;;;5033269;28;20079;-66
2021/07/22 00:41:55;;;;;;;4.65;3.40;;;22.40;73.50;;;;;;5033186;28;20041;-66
2021/07/22 00:44:21;;;;;;;5.03;3.40;;;22.40;73.50;;;;;;5033125;28;20028;-66
2021/07/22 00:46:47;;;;;;;4.20;3.10;;;22.40;73.70;;;;;;5034379;28;20540;-66
2021/07/22 00:49:14;;;;;;;4.40;3.70;;;22.30;73.60;;;;;;5026082;28;20512;-66
2021/07/22 00:51:40;;;;;;;3.58;2.95;;;22.30;73.60;;;;;;5025644;28;20339;-66
2021/07/22 00:54:06;;;;;;;3.70;2.92;;;22.30;73.90;;;;;;5014447;28;20045;-66
2021/07/22 00:56:33;;;;;;;3.92;3.15;;;22.40;73.90;;;;;;5029512;28;20064;-66
2021/07/22 00:59:02;;;;;;;3.97;3.20;;;22.30;73.90;;;;;;5034342;28;20481;-66
2021/07/22 01:01:29;;;;;;;3.45;2.95;;;22.30;73.90;;;;;;5034081;28;20025;-66
2021/07/22 01:03:54;;;;;;;3.72;3.13;;;22.30;73.60;;;;;;5034173;28;20074;-66
2021/07/22 01:06:20;;;;;;;3.97;3.40;;;22.30;73.60;;;;;;5033213;28;20030;-66
2021/07/22 01:08:46;;;;;;;3.63;3.25;;;22.20;73.60;;;;;;5033820;28;20024;-66
2021/07/22 01:11:11;;;;;;;4.32;3.15;;;22.20;73.50;;;;;;5032970;28;20024;-66
2021/07/22 01:13:37;;;;;;;5.38;3.08;;;22.20;73.40;;;;;;5033293;28;20041;-66
2021/07/22 01:16:03;;;;;;;4.00;3.10;;;22.20;73.20;;;;;;5034027;28;20028;-66
2021/07/22 01:18:29;;;;;;;4.53;3.17;;;22.20;73.10;;;;;;5032650;28;20048;-66
2021/07/22 01:20:54;;;;;;;4.00;2.90;;;22.20;73.00;;;;;;4995105;28;1129351;-66
2021/07/22 01:23:20;;;;;;;3.15;2.80;;;22.20;73.20;;;;;;5029636;28;20034;-67
2021/07/22 01:25:46;;;;;;;3.65;3.13;;;22.20;72.90;;;;;;5027132;28;20030;-66
2021/07/22 01:28:11;;;;;;;4.50;3.00;;;22.20;73.00;;;;;;5034393;28;20155;-66
2021/07/22 01:30:37;;;;;;;3.40;3.08;;;22.20;73.20;;;;;;5032582;28;20037;-66
2021/07/22 01:33:03;;;;;;;4.55;3.15;;;22.10;73.10;;;;;;5016181;28;20367;-66
2021/07/22 01:35:29;;;;;;;3.75;2.97;;;22.20;73.20;;;;;;5026724;28;20099;-66
2021/07/22 01:37:54;;;;;;;3.22;2.70;;;22.20;73.30;;;;;;5033780;28;20034;-66
2021/07/22 01:40:20;;;;;;;3.83;2.85;;;22.20;73.20;;;;;;5030523;28;20025;-66
2021/07/22 01:42:45;;;;;;;5.43;2.92;;;22.20;72.90;;;;;;5034346;28;20378;-66
2021/07/22 01:45:12;;;;;;;5.05;3.00;;;22.20;72.60;;;;;;5034517;28;20485;-66
2021/07/22 01:47:37;;;;;;;4.97;3.10;;;22.20;72.70;;;;;;5033729;28;20105;-66
2021/07/22 01:50:03;;;;;;;3.78;2.95;;;22.20;72.70;;;;;;5034295;28;20109;-66
2021/07/22 01:52:29;;;;;;;5.53;3.15;;;22.20;72.30;;;;;;5034237;28;20037;-66
2021/07/22 01:54:55;;;;;;;3.60;3.00;;;22.20;72.40;;;;;;5031059;28;20022;-66
2021/07/22 01:57:21;;;;;;;3.20;2.80;;;22.20;72.30;;;;;;5030579;28;20104;-66
2021/07/22 01:59:47;;;;;;;3.35;2.50;;;22.30;72.20;;;;;;5030157;28;20026;-66
2021/07/22 02:02:12;;;;;;;3.78;2.42;;;22.30;71.80;;;;;;5033169;28;20083;-66
2021/07/22 02:04:39;;;;;;;4.15;2.63;;;22.30;71.60;;;;;;5034004;28;20049;-66
2021/07/22 02:07:05;;;;;;;2.88;2.30;;;22.30;71.30;;;;;;5034237;28;20104;-66
2021/07/22 02:09:31;;;;;;;3.88;2.55;;;22.30;70.90;;;;;;5031494;28;20030;-66
2021/07/22 02:11:58;;;;;;;4.93;2.45;;;22.30;70.80;;;;;;5033105;28;20026;-66
2021/07/22 02:14:25;;;;;;;2.78;2.50;;;22.20;70.50;;;;;;5033684;28;20053;-66
2021/07/22 02:16:51;;;;;;;2.50;2.30;;;22.20;70.70;;;;;;5033816;28;20022;-66
2021/07/22 02:19:17;;;;;;;3.47;2.35;;;22.20;70.30;;;;;;5028205;28;20120;-66
2021/07/22 02:21:44;;;;;;;3.28;2.70;;;22.20;70.20;;;;;;5033777;28;20124;-66
2021/07/22 02:24:11;;;;;;;5.45;2.97;;;22.20;70.50;;;;;;5032888;28;20461;-66
2021/07/22 02:26:37;;;;;;;4.22;2.90;;;22.20;70.70;;;;;;5033033;28;20022;-66
2021/07/22 02:29:04;;;;;;;3.03;2.72;;;22.20;70.80;;;;;;5033563;28;20026;-66
2021/07/22 02:31:30;;;;;;;4.30;2.88;;;22.20;71.00;;;;;;5028043;28;20030;-66
2021/07/22 02:33:56;;;;;;;3.28;2.60;;;22.20;71.00;;;;;;5028551;28;20474;-66
2021/07/22 02:36:22;;;;;;;3.67;2.38;;;22.20;71.10;;;;;;5014167;28;20119;-66
2021/07/22 02:38:48;;;;;;;4.60;2.78;;;22.20;71.30;;;;;;5016804;28;20033;-66
2021/07/22 02:41:13;;;;;;;3.33;2.80;;;22.20;71.30;;;;;;5032623;28;20497;-66
2021/07/22 02:43:42;;;;;;;3.28;2.80;;;22.20;71.20;;;;;;5033310;28;20474;-66
2021/07/22 02:46:08;;;;;;;2.88;2.58;;;22.20;71.30;;;;;;5033288;28;20033;-66
2021/07/22 02:48:35;;;;;;;3.10;2.80;;;22.20;71.40;;;;;;5033240;28;20033;-66
2021/07/22 02:51:01;;;;;;;4.35;2.90;;;22.20;71.40;;;;;;5033258;28;20072;-66
2021/07/22 02:53:30;;;;;;;6.10;3.00;;;22.20;71.10;;;;;;5022200;28;20025;-66
2021/07/22 02:55:59;;;;;;;3.85;2.90;;;22.20;71.30;;;;;;5030986;28;20030;-66
2021/07/22 02:58:25;;;;;;;9.82;3.38;;;22.20;71.20;;;;;;5031372;28;20547;-66
2021/07/22 03:00:52;;;;;;;3.30;2.90;;;22.20;71.20;;;;;;5032905;28;20030;-66
2021/07/22 03:03:18;;;;;;;4.85;2.72;;;22.10;71.50;;;;;;5033277;28;20121;-66
2021/07/22 03:05:44;;;;;;;3.97;3.05;;;22.10;71.50;;;;;;5033252;28;20100;-66
2021/07/22 03:08:10;;;;;;;3.35;2.80;;;22.20;71.60;;;;;;5029529;28;20510;-66
2021/07/22 03:10:35;;;;;;;3.72;2.60;;;22.20;71.60;;;;;;5023675;28;20017;-66
2021/07/22 03:13:01;;;;;;;3.75;2.83;;;22.10;71.40;;;;;;5032998;28;20025;-66
2021/07/22 03:15:28;;;;;;;2.88;2.63;;;22.20;71.40;;;;;;5033383;28;20060;-66
2021/07/22 03:17:54;;;;;;;4.22;3.17;;;22.20;71.50;;;;;;5030858;28;20104;-66
2021/07/22 03:20:19;;;;;;;3.55;3.10;;;22.20;71.50;;;;;;5032056;28;20442;-66
2021/07/22 03:22:45;;;;;;;4.38;3.05;;;22.20;71.50;;;;;;5032612;28;20025;-66
2021/07/22 03:25:11;;;;;;;3.53;3.22;;;22.30;71.50;;;;;;5031781;28;20163;-66
2021/07/22 03:27:37;;;;;;;4.85;2.90;;;22.40;71.50;;;;;;5031149;28;20022;-66
2021/07/22 03:30:05;;;;;;;4.10;2.90;;;22.40;71.40;;;;;;5032794;28;20029;-66
2021/07/22 03:32:31;;;;;;;3.58;2.70;;;22.50;71.20;;;;;;5032899;28;20021;-66
2021/07/22 03:34:57;;;;;;;3.35;2.78;;;22.50;71.50;;;;;;5028950;28;20028;-66
2021/07/22 03:37:22;;;;;;;3.22;2.83;;;22.60;71.50;;;;;;5012577;28;20168;-66
2021/07/22 03:39:48;;;;;;;3.25;2.50;;;22.60;71.40;;;;;;5017788;28;20025;-66
2021/07/22 03:42:14;;;;;;;3.08;2.80;;;22.60;71.30;;;;;;5032629;28;20022;-66
2021/07/22 03:44:39;;;;;;;3.05;2.72;;;22.60;71.20;;;;;;5032823;28;20022;-66
2021/07/22 03:47:05;;;;;;;4.07;2.63;;;22.60;71.20;;;;;;5032772;28;20088;-66
2021/07/22 03:49:31;;;;;;;3.28;2.95;;;22.60;71.30;;;;;;5031195;28;20088;-66
2021/07/22 03:51:58;;;;;;;3.38;2.95;;;22.50;71.10;;;;;;5020837;28;20070;-66
2021/07/22 03:54:24;;;;;;;4.13;2.67;;;22.50;71.00;;;;;;5019981;28;20681;-66
2021/07/22 03:56:50;;;;;;;5.70;2.85;;;22.50;71.00;;;;;;5021945;28;20377;-66
2021/07/22 03:59:19;;;;;;;3.58;3.10;;;22.50;71.00;;;;;;5032753;28;20021;-66
2021/07/22 04:01:44;;;;;;;4.50;3.13;;;22.40;70.80;;;;;;5032884;28;20044;-66
2021/07/22 04:04:10;;;;;;;2.95;2.72;;;22.40;70.80;;;;;;5032389;28;20025;-66
2021/07/22 04:06:37;;;;;;;3.63;3.10;;;22.40;70.60;;;;;;5031229;28;20125;-66
2021/07/22 04:09:03;;;;;;;3.45;3.15;;;22.40;71.10;;;;;;5023659;28;20144;-66
2021/07/22 04:11:30;;;;;;;4.82;2.92;;;22.50;71.30;;;;;;5024756;28;20026;-66
2021/07/22 04:13:56;;;;;;;4.53;3.00;;;22.70;71.60;;;;;;5035946;28;20457;-66
2021/07/22 04:16:21;;;;;;;4.85;3.70;;;23.00;71.40;;;;;;5035534;28;20060;-66
2021/07/22 04:18:47;;;;;;;3.70;3.08;;;23.40;70.70;;;;;;5036024;28;20025;-66
2021/07/22 04:21:13;;;;;;;4.63;3.63;;;23.90;70.10;;;;;;5035900;28;20132;-66
2021/07/22 04:23:39;;;;;;;4.20;3.20;;;24.60;69.50;;;;;;5036028;28;20029;-66
2021/07/22 04:26:04;;;;;;;3.95;2.97;;;25.60;68.00;;;;;;5034135;28;20033;-66
2021/07/22 04:28:30;;;;;;;5.20;2.97;;;26.70;66.20;;;;;;5035588;28;20139;-67
2021/07/22 04:30:56;;;;;;;4.93;2.92;;;27.70;64.10;;;;;;5036046;28;20041;-66
2021/07/22 04:33:22;;;;;;;3.22;2.92;;;28.70;62.10;;;;;;5034841;28;20044;-66
2021/07/22 04:35:47;;;;;;;3.95;2.70;;;29.50;60.30;;;;;;5028650;28;20021;-66
2021/07/22 04:38:13;;;;;;;3.28;2.83;;;30.20;58.40;;;;;;5015131;28;20025;-66
2021/07/22 04:40:38;;;;;;;5.75;4.55;;;30.40;57.50;;;;;;5027946;28;20496;-66
2021/07/22 04:43:04;;;;;;;5.80;3.70;;;30.70;56.80;;;;;;5035479;28;20466;-66
2021/07/22 04:45:30;;;;;;;6.57;5.88;;;31.00;55.90;;;;;;5035566;28;20029;-66
2021/07/22 04:47:55;;;;;;;5.57;4.72;;;31.30;54.90;;;;;;5035273;28;20029;-66
2021/07/22 04:50:21;;;;;;;4.95;3.60;;;31.60;54.70;;;;;;5035589;28;20021;-66
2021/07/22 04:52:47;;;;;;;4.18;3.13;;;32.10;54.20;;;;;;5034634;28;20056;-66
2021/07/22 04:55:13;;;;;;;3.78;3.20;;;32.50;53.20;;;;;;5030109;28;20357;-66
2021/07/22 04:57:38;;;;;;;3.25;2.75;;;32.90;52.30;;;;;;5024664;28;20038;-66
2021/07/22 05:00:05;;;;;;;3.78;3.03;;;33.20;51.50;;;;;;5032728;28;20121;-66
2021/07/22 05:02:31;;;;;;;3.25;2.95;;;33.60;50.80;;;;;;5031749;28;20029;-66
2021/07/22 05:04:57;;;;;;;4.65;2.70;;;33.90;50.00;;;;;;5030543;28;20056;-54
2021/07/22 05:07:22;;;;;;;3.63;2.80;;;34.10;50.70;;;;;;5036531;28;20022;-52
2021/07/22 05:09:48;;;;;;;3.30;2.50;;;34.30;50.40;;;;;;5031055;28;20040;-52
2021/07/22 05:12:14;;;;;;;3.28;2.78;;;34.60;49.70;;;;;;5036333;28;20018;-55
2021/07/22 05:14:40;;;;;;;3.08;2.70;;;34.90;49.10;;;;;;5037030;28;20021;-56
2021/07/22 05:17:05;;;;;;;5.97;2.65;;;35.20;48.40;;;;;;5037331;28;20033;-56
2021/07/22 05:19:31;;;;;;;3.95;2.72;;;35.30;47.90;;;;;;5031995;28;20429;-56
2021/07/22 05:21:57;;;;;;;3.55;2.85;;;35.40;47.30;;;;;;5034764;28;20382;-57
2021/07/22 05:24:22;;;;;;;9.60;2.95;;;35.40;46.90;;;;;;5032493;28;20048;-57
2021/07/22 05:26:49;;;;;;;3.70;2.90;;;35.40;46.60;;;;;;5035449;28;20036;-57
2021/07/22 05:29:15;;;;;;;5.50;3.28;;;35.20;46.20;;;;;;5037306;28;20059;-56
2021/07/22 05:31:43;;;;;;;3.63;2.80;;;35.00;45.90;;;;;;5034723;28;20064;-56
2021/07/22 05:34:09;;;;;;;3.45;2.97;;;34.50;45.90;;;;;;5029914;28;20064;-56
2021/07/22 05:36:35;;;;;;;3.33;2.97;;;33.90;46.50;;;;;;5031078;28;20026;-55
2021/07/22 05:39:01;;;;;;;4.20;2.90;;;33.10;47.20;;;;;;5032308;28;20029;-56
2021/07/22 05:41:27;;;;;;;3.85;3.47;;;32.30;48.10;;;;;;5028459;28;20029;-55
2021/07/22 05:43:53;;;;;;;3.50;2.95;;;31.60;49.10;;;;;;5032624;28;20038;-56
2021/07/22 05:46:19;;;;;;;3.33;2.80;;;30.90;50.10;;;;;;5030402;28;20041;-56
2021/07/22 05:48:49;;;;;;;3.50;3.20;;;30.30;50.80;;;;;;5024158;28;20030;-52
2021/07/22 05:51:15;;;;;;;4.13;3.20;;;29.70;51.60;;;;;;5025600;28;20026;-56
2021/07/22 05:53:40;;;;;;;5.03;3.53;;;29.30;52.20;;;;;;5026592;28;20065;-56
2021/07/22 05:56:06;;;;;;;3.35;3.05;;;28.90;53.00;;;;;;5022649;28;20053;-52
2021/07/22 05:58:34;;;;;;;4.43;3.30;;;28.60;53.70;;;;;;5025588;28;20033;-55
2021/07/22 06:01:03;;;;;;;4.82;3.17;;;28.30;54.20;;;;;;5029006;28;20029;-55
2021/07/22 06:03:29;;;;;;;6.57;3.35;;;28.00;54.70;;;;;;5025610;28;20060;-54
2021/07/22 06:05:54;;;;;;;3.97;3.35;;;27.80;55.10;;;;;;5020630;28;20029;-50
2021/07/22 06:08:20;;;;;;;3.88;3.38;;;27.60;55.60;;;;;;5021261;28;20080;-52
2021/07/22 06:10:45;;;;;;;4.82;3.22;;;27.40;56.10;;;;;;5023291;28;20574;-50
2021/07/22 06:13:11;;;;;;;4.40;3.40;;;27.10;56.50;;;;;;5018263;28;20033;-53
2021/07/22 06:15:37;;;;;;;4.88;3.50;;;27.00;56.90;;;;;;5016507;28;20026;-53
2021/07/22 06:18:02;;;;;;;4.38;3.33;;;26.80;57.20;;;;;;5018615;28;20033;-51
2021/07/22 06:20:28;;;;;;;5.57;3.38;;;26.70;57.80;;;;;;5022546;28;20432;-54
2021/07/22 06:22:54;;;;;;;4.25;3.28;;;26.70;58.00;;;;;;5019661;28;20039;-54
2021/07/22 06:25:19;;;;;;;3.72;3.20;;;26.70;58.40;;;;;;5018795;28;20033;-54
2021/07/22 06:27:45;;;;;;;5.47;3.33;;;26.60;58.60;;;;;;5022031;28;20037;-55
2021/07/22 06:30:12;;;;;;;5.03;3.45;;;26.60;58.70;;;;;;5022053;28;20075;-52
2021/07/22 06:32:38;;;;;;;4.10;3.70;;;26.60;59.00;;;;;;5019300;28;20115;-54
2021/07/22 06:35:04;;;;;;;5.32;3.60;;;26.60;59.00;;;;;;5017219;28;20428;-53
2021/07/22 06:37:42;;;;;;;4.82;3.00;;;26.60;59.40;;;;;;5021219;28;20095;-55
2021/07/22 06:40:08;;;;;;;3.72;3.38;;;26.50;59.60;;;;;;5021686;28;20026;-54
2021/07/22 06:42:33;;;;;;;4.68;3.22;;;26.50;59.80;;;;;;5019059;28;20054;-50
2021/07/22 06:44:59;;;;;;;3.97;3.42;;;26.50;59.60;;;;;;5012395;28;20120;-53
2021/07/22 06:47:25;;;;;;;5.13;3.00;;;26.50;59.80;;;;;;5014519;28;20033;-53
2021/07/22 06:49:51;;;;;;;4.40;3.20;;;26.40;59.70;;;;;;5014418;28;20109;-55
2021/07/22 06:52:17;;;;;;;5.75;2.90;;;26.40;59.70;;;;;;5012653;28;20566;-55
2021/07/22 06:54:42;;;;;;;4.35;3.38;;;26.40;60.00;;;;;;5010475;28;20025;-53
2021/07/22 06:57:08;;;;;;;3.75;3.03;;;26.40;59.80;;;;;;5013052;28;20087;-51
2021/07/22 06:59:33;;;;;;;3.90;3.13;;;26.40;59.90;;;;;;5017557;28;20037;-51
2021/07/22 07:01:59;;;;;;;3.50;3.10;;;26.40;60.00;;;;;;5014881;28;20042;-53
2021/07/22 07:04:25;;;;;;;3.85;3.10;;;26.30;60.10;;;;;;5010802;28;20026;-55
2021/07/22 07:06:51;;;;;;;5.50;3.50;;;26.40;60.30;;;;;;5010884;28;20500;-51
2021/07/22 07:09:16;;;;;;;4.43;3.30;;;26.40;60.40;;;;;;5012574;28;20026;-53
2021/07/22 07:11:42;;;;;;;4.75;3.25;;;26.40;60.60;;;;;;5010780;28;20025;-54
2021/07/22 07:14:07;;;;;;;4.07;3.20;;;26.30;60.50;;;;;;5015472;28;22072;-54
2021/07/22 07:16:33;;;;;;;3.28;2.97;;;26.30;60.40;;;;;;5009626;28;20036;-55
2021/07/22 07:18:59;;;;;;;4.07;3.63;;;26.40;60.20;;;;;;5017599;28;20596;-56
2021/07/22 07:21:24;;;;;;;3.47;3.17;;;26.30;60.40;;;;;;5022307;28;20501;-56
2021/07/22 07:23:50;;;;;;;8.65;3.97;;;26.40;60.50;;;;;;5014264;28;20119;-57
2021/07/22 07:26:16;;;;;;;3.45;2.92;;;26.40;61.00;;;;;;5006827;28;20033;-57
2021/07/22 07:28:41;;;;;;;5.25;3.13;;;26.30;60.50;;;;;;5010897;28;21172;-56
2021/07/22 07:31:07;;;;;;;3.80;2.97;;;26.30;60.80;;;;;;5012358;28;20026;-57
2021/07/22 07:33:33;;;;;;;5.30;3.50;;;26.40;60.90;;;;;;5014035;28;20025;-58
2021/07/22 07:36:00;;;;;;;3.55;3.25;;;26.40;60.20;;;;;;5013855;28;20045;-58
2021/07/22 07:38:25;;;;;;;3.17;2.85;;;26.30;60.40;;;;;;5015333;28;20041;-58
2021/07/22 07:40:52;;;;;;;3.47;2.88;;;26.40;60.20;;;;;;5011800;28;20772;-57
2021/07/22 07:43:20;;;;;;;3.97;2.83;;;26.30;59.90;;;;;;5011491;28;20037;-56
2021/07/22 07:45:46;;;;;;;3.72;2.78;;;26.30;59.60;;;;;;5005296;28;20029;-58
2021/07/22 07:48:12;;;;;;;3.10;2.78;;;26.30;59.30;;;;;;5016387;28;20048;-56
2021/07/22 07:50:37;;;;;;;3.28;2.75;;;26.30;59.00;;;;;;5009280;28;20049;-55
2021/07/22 07:53:17;;;;;;;2.80;2.50;;;26.30;58.70;;;;;;5006118;28;20052;-57
2021/07/22 07:55:44;;;;;;;3.92;2.40;;;26.20;58.90;;;;;;5009782;28;20025;-57
2021/07/22 07:58:09;;;;;;;2.45;2.25;;;26.30;59.00;;;;;;5009302;28;20162;-55
2021/07/22 08:00:36;;;;;;;2.42;2.22;;;26.20;59.00;;;;;;5011023;28;20040;-57
2021/07/22 08:03:02;;;;;;;2.97;2.55;;;26.30;58.90;;;;;;5007182;28;21058;-56
2021/07/22 08:05:28;;;;;;;3.35;2.40;;;26.30;58.90;;;;;;5012877;28;20091;-57
2021/07/22 08:07:54;;;;;;;2.85;2.10;;;26.30;59.00;;;;;;5007101;28;20038;-56
2021/07/22 08:10:21;;;;;;;2.70;2.20;;;26.30;58.60;;;;;;5011045;28;20021;-57
2021/07/22 08:12:47;;;;;;;2.60;2.20;;;26.30;58.50;;;;;;5010680;28;20159;-57
2021/07/22 08:15:13;;;;;;;2.70;2.28;;;26.30;58.40;;;;;;5008279;28;20486;-56
2021/07/22 08:17:40;;;;;;;2.35;2.15;;;26.20;58.10;;;;;;5010537;28;20039;-56
2021/07/22 08:20:08;;;;;;;3.08;2.40;;;26.20;58.20;;;;;;5012767;28;20037;-57
2021/07/22 08:22:35;;;;;;;2.50;2.30;;;26.20;58.10;;;;;;5015133;28;20068;-55
2021/07/22 08:25:01;;;;;;;2.85;2.03;;;26.20;58.30;;;;;;5010627;28;20025;-56
2021/07/22 08:27:28;;;;;;;2.40;2.20;;;26.10;58.00;;;;;;5013101;28;20095;-57
2021/07/22 08:29:55;;;;;;;2.47;2.20;;;26.10;58.20;;;;;;5013935;28;20059;-56
2021/07/22 08:32:21;;;;;;;4.57;2.30;;;26.00;58.10;;;;;;5016041;28;20095;-57
2021/07/22 08:34:47;;;;;;;3.20;2.45;;;26.00;58.50;;;;;;5012702;28;20072;-55
2021/07/22 08:37:12;;;;;;;3.20;2.10;;;26.00;58.40;;;;;;5011130;28;20144;-56
2021/07/22 08:39:39;;;;;;;3.05;2.00;;;26.00;58.20;;;;;;5017382;28;20172;-57
2021/07/22 08:42:07;;;;;;;2.75;2.25;;;26.00;58.30;;;;;;5007978;28;20037;-50
2021/07/22 08:44:35;;;;;;;3.15;2.00;;;25.90;57.70;;;;;;5012510;28;20715;-51
2021/07/22 08:47:03;;;;;;;2.40;2.20;;;25.80;57.80;;;;;;5008612;28;20045;-50
2021/07/22 08:49:29;;;;;;;3.60;2.40;;;25.80;58.30;;;;;;5010471;28;20037;-54
2021/07/22 08:51:58;;;;;;;2.60;2.40;;;25.70;58.10;;;;;;5008184;28;20598;-54
2021/07/22 08:54:24;;;;;;;3.70;2.30;;;25.70;58.40;;;;;;5004702;28;20026;-54
2021/07/22 08:56:51;;;;;;;2.65;2.45;;;25.70;58.50;;;;;;5015072;28;20080;-52
2021/07/22 08:59:18;;;;;;;2.50;2.30;;;25.70;58.70;;;;;;5010926;28;20466;-53
2021/07/22 09:01:45;;;;;;;3.08;2.40;;;25.70;58.20;;;;;;5019707;28;20789;-55
2021/07/22 09:04:11;;;;;;;2.63;2.42;;;25.60;58.00;;;;;;5018694;28;20029;-54
2021/07/22 09:06:36;;;;;;;2.97;2.13;;;25.60;57.80;;;;;;5022110;28;20025;-53
2021/07/22 09:09:16;;;;;;;2.30;2.10;;;25.60;58.00;;;;;;5016521;28;20033;-53
2021/07/22 09:11:54;;;;;;;2.45;2.25;;;25.60;57.40;;;;;;5017683;28;20164;-51
2021/07/22 09:14:21;;;;;;;2.58;2.30;;;25.50;57.40;;;;;;5015388;28;20033;-53
2021/07/22 09:16:46;;;;;;;2.38;2.17;;;25.50;57.10;;;;;;5015557;28;20041;-51
2021/07/22 09:19:38;;;;;;;3.10;2.47;;;25.50;57.30;;;;;;5016824;28;20091;-52
2021/07/22 09:22:08;;;;;;;3.63;2.53;;;25.50;57.10;;;;;;5016126;28;20045;-49
2021/07/22 09:24:53;;;;;;;3.33;2.20;;;25.50;57.10;;;;;;5014961;28;20087;-54
2021/07/22 09:27:30;;;;;;;3.30;2.53;;;25.40;57.20;;;;;;5010417;28;20046;-53
2021/07/22 09:29:57;;;;;;;3.65;2.30;;;25.40;57.30;;;;;;5015299;28;20029;-53
2021/07/22 09:32:29;;;;;;;2.95;2.20;;;25.40;57.70;;;;;;5015387;28;20041;-53
2021/07/22 09:35:10;;;;;;;3.05;2.53;;;25.40;57.40;;;;;;5012216;28;20021;-50
2021/07/22 09:37:41;;;;;;;2.50;2.30;;;25.40;57.10;;;;;;5013118;28;20473;-51
2021/07/22 09:40:11;;;;;;;4.28;2.60;;;25.30;57.20;;;;;;5011934;28;20018;-52
2021/07/22 09:42:55;;;;;;;2.88;2.35;;;25.30;57.50;;;;;;5010196;28;20416;-51
2021/07/22 09:45:26;;;;;;;3.65;2.63;;;25.30;57.50;;;;;;5011240;28;20784;-51
2021/07/22 09:47:57;;;;;;;3.10;2.35;;;25.30;57.80;;;;;;5013326;28;20397;-53
2021/07/22 09:50:25;;;;;;;3.00;2.55;;;25.30;57.60;;;;;;5011582;28;20026;-50
2021/07/22 09:53:09;;;;;;;2.47;2.20;;;25.30;57.70;;;;;;5015652;28;20108;-53
2021/07/22 09:55:35;;;;;;;2.50;2.10;;;25.30;57.30;;;;;;5016414;28;20033;-52
2021/07/22 09:58:06;;;;;;;5.50;2.17;;;25.30;57.60;;;;;;5015339;28;20030;-52
2021/07/22 10:00:34;;;;;;;3.90;2.22;;;25.30;57.80;;;;;;5014412;28;20057;-53
2021/07/22 10:03:02;;;;;;;2.58;2.38;;;25.30;57.70;;;;;;5016372;28;20537;-55
2021/07/22 10:05:31;;;;;;;2.75;2.40;;;25.40;57.60;;;;;;5020093;28;20037;-52
2021/07/22 10:07:58;;;;;;;2.25;2.05;;;25.40;57.60;;;;;;5015517;28;20037;-53
2021/07/22 10:10:28;;;;;;;2.30;2.10;;;25.40;56.90;;;;;;5009233;28;20634;-54
2021/07/22 10:12:59;;;;;;;2.57;2.37;;;25.50;57.00;;;;;;5012565;28;20116;-53
2021/07/22 10:15:28;;;;;;;3.42;2.30;;;25.50;56.80;;;;;;5009630;28;20052;-51
2021/07/22 10:17:58;;;;;;;4.00;2.15;;;25.50;56.30;;;;;;5006921;28;20021;-53
2021/07/22 10:20:28;;;;;;;2.60;2.40;;;25.50;56.60;;;;;;5012190;28;20063;-53
2021/07/22 10:22:54;;;;;;;3.30;2.17;;;25.50;56.40;;;;;;5012938;28;20025;-54
2021/07/22 10:25:20;;;;;;;2.50;2.30;;;25.40;56.70;;;;;;5014761;28;20045;-55
2021/07/22 10:27:46;;;;;;;3.28;2.40;;;25.40;56.50;;;;;;5015212;28;20033;-53
2021/07/22 10:30:17;;;;;;;2.55;2.35;;;25.40;55.80;;;;;;5015484;28;20104;-54
2021/07/22 10:33:03;;;;;;;2.53;2.33;;;25.40;55.70;;;;;;5018108;28;20053;-52
2021/07/22 10:35:31;;;;;;;2.83;2.50;;;25.30;55.20;;;;;;5015490;28;20033;-50
2021/07/22 10:38:05;;;;;;;2.33;2.13;;;25.20;55.00;;;;;;5020201;28;20021;-53
2021/07/22 10:40:55;;;;;;;2.28;2.08;;;25.20;54.80;;;;;;5021906;28;20064;-54
2021/07/22 10:43:41;;;;;;;4.25;2.13;;;25.10;54.20;;;;;;5016623;28;20034;-55
2021/07/22 10:46:11;;;;;;;3.08;2.25;;;25.10;55.10;;;;;;5016550;28;20047;-56
2021/07/22 10:48:38;;;;;;;2.58;2.17;;;25.10;55.10;;;;;;5017546;28;20052;-56
2021/07/22 10:51:06;;;;;;;2.40;2.20;;;25.10;54.60;;;;;;5016982;28;20397;-55
2021/07/22 10:53:54;;;;;;;3.17;2.42;;;25.00;54.50;;;;;;5017660;28;20053;-55
2021/07/22 10:56:22;;;;;;;2.30;2.10;;;25.00;55.30;;;;;;5017769;28;20034;-52
2021/07/22 10:58:56;;;;;;;2.65;2.25;;;25.00;55.30;;;;;;5018280;28;20040;-54
2021/07/22 11:01:41;;;;;;;2.22;1.92;;;25.00;55.60;;;;;;5013353;28;20103;-51
2021/07/22 11:04:10;;;;;;;2.42;2.22;;;25.10;55.00;;;;;;5013109;28;20044;-55
2021/07/22 11:06:58;;;;;;;2.35;1.95;;;25.10;55.40;;;;;;5013697;28;20565;-55
2021/07/22 11:09:55;;;;;;;2.78;2.30;;;25.20;55.10;;;;;;5015573;28;20029;-56
2021/07/22 11:12:33;;;;;;;3.13;2.22;;;25.20;54.30;;;;;;5011965;28;20043;-52
2021/07/22 11:15:04;;;;;;;2.33;2.10;;;25.30;54.80;;;;;;5023065;28;20109;-51
2021/07/22 11:17:35;;;;;;;2.80;2.22;;;25.30;55.20;;;;;;5019193;28;20057;-54
2021/07/22 11:20:31;;;;;;;2.95;2.30;;;25.40;55.20;;;;;;5012710;28;20123;-51
2021/07/22 11:22:58;;;;;;;4.07;2.38;;;25.40;54.90;;;;;;5024192;28;20022;-54
2021/07/22 11:25:25;;;;;;;3.15;2.20;;;25.40;54.80;;;;;;5020286;28;20640;-53
2021/07/22 11:27:51;;;;;;;3.42;2.08;;;25.40;54.20;;;;;;5019258;28;20421;-55
2021/07/22 11:30:19;;;;;;;2.38;2.17;;;25.40;54.30;;;;;;5016931;28;20033;-55
2021/07/22 11:32:45;;;;;;;3.08;2.53;;;25.40;54.60;;;;;;5015775;28;20028;-54
2021/07/22 11:35:12;;;;;;;2.88;2.13;;;25.40;54.60;;;;;;5018255;28;20111;-55
2021/07/22 11:37:39;;;;;;;2.22;2.03;;;25.40;54.50;;;;;;5021632;28;20025;-55
2021/07/22 11:40:11;;;;;;;2.35;2.13;;;25.40;54.80;;;;;;5021439;28;20131;-56
2021/07/22 11:42:47;;;;;;;2.38;2.17;;;25.40;55.00;;;;;;5015882;28;20062;-55
2021/07/22 11:45:13;;;;;;;2.08;1.90;;;25.40;55.20;;;;;;5013237;28;20041;-56
2021/07/22 11:47:38;;;;;;;3.22;2.20;;;25.40;54.90;;;;;;5021765;28;20516;-53
2021/07/22 11:50:05;;;;;;;2.40;2.13;;;25.40;54.50;;;;;;5017712;28;20038;-53
2021/07/22 11:52:30;;;;;;;4.03;2.45;;;25.40;54.60;;;;;;5017791;28;20136;-53
2021/07/22 11:55:06;;;;;;;2.40;2.20;;;25.40;54.70;;;;;;5015449;28;20053;-55
2021/07/22 11:57:35;;;;;;;3.72;2.25;;;25.50;54.70;;;;;;5011997;28;20116;-55
2021/07/22 12:00:14;;;;;;;3.10;2.15;;;25.50;54.40;;;;;;5013681;28;20033;-55
2021/07/22 12:02:44;;;;;;;4.25;2.42;;;25.50;54.30;;;;;;5018187;28;20037;-55
2021/07/22 12:05:11;;;;;;;4.43;2.60;;;25.50;54.00;;;;;;5023129;28;20033;-55
2021/07/22 12:07:36;;;;;;;3.85;2.50;;;25.40;53.90;;;;;;5015837;28;20109;-53
2021/07/22 12:10:03;;;;;;;2.58;2.38;;;25.30;53.90;;;;;;5021038;28;20105;-55
2021/07/22 12:12:29;;;;;;;2.75;2.17;;;25.20;54.30;;;;;;5011855;28;20127;-54
2021/07/22 12:15:04;;;;;;;2.63;2.20;;;25.20;54.50;;;;;;5011317;28;20474;-52
2021/07/22 12:17:29;;;;;;;3.95;2.38;;;25.20;54.70;;;;;;5009483;28;20034;-55
2021/07/22 12:19:55;;;;;;;2.42;1.92;;;25.20;55.60;;;;;;5013837;28;20054;-54
2021/07/22 12:22:29;;;;;;;2.78;2.40;;;25.40;54.60;;;;;;5008861;28;20470;-56
2021/07/22 12:25:09;;;;;;;2.63;2.25;;;25.40;54.60;;;;;;5012602;28;20052;-54
2021/07/22 12:27:53;;;;;;;2.63;2.20;;;25.50;53.70;;;;;;5013639;28;20494;-55
2021/07/22 12:30:32;;;;;;;4.40;2.70;;;25.50;54.30;;;;;;5016506;28;20064;-54
2021/07/22 12:33:01;;;;;;;5.68;2.45;;;25.50;53.90;;;;;;5010961;28;20056;-55
2021/07/22 12:35:35;;;;;;;2.88;2.33;;;25.50;53.70;;;;;;5016348;28;20030;-54
2021/07/22 12:38:19;;;;;;;2.47;2.20;;;25.50;53.70;;;;;;5010815;28;20085;-52
2021/07/22 12:40:48;;;;;;;3.97;2.30;;;25.50;54.10;;;;;;5019569;28;20772;-55
2021/07/22 12:43:17;;;;;;;3.30;2.40;;;25.50;53.90;;;;;;5012825;28;20049;-55
2021/07/22 12:45:44;;;;;;;3.22;2.25;;;25.50;54.00;;;;;;5015341;28;20182;-55
2021/07/22 12:48:13;;;;;;;2.70;2.40;;;25.40;53.60;;;;;;5017069;28;20033;-56
2021/07/22 12:50:46;;;;;;;2.92;2.50;;;25.40;54.20;;;;;;5018175;28;20111;-55